KHVN

Tweed-New Haven Airport

New Haven, Connecticut, USA
METAR KHVN 230753Z AUTO 06003KT 10SM OVC013 02/00 A3066 RMK AO2 SLP382 T00220000
Observed Flight Rules
Feb-23 @ 07:53 UTC (13 minutes ago) Marginal Visual Flight Rules
Wind Visibility Clouds
60° at 3 knots 10 miles
  • Overcast at 1,300' AGL
Temperatures Readings
Current 2°C / 36°F
Dewpoint 0°C / 32°F
Humidity 87%
Altimeter 30.66" Hg
Pressure 1038.2 hPa
Elevation 4
METAR KHVN 230753Z AUTO 06003KT 10SM OVC013 02/00 A3066 RMK AO2 SLP382 T00220000
Observed Flight Rules
Feb-23 @ 07:53 UTC
(13 minutes ago)
MVFR
Wind Visibility
60° at 3 knots 10 miles
Clouds
  • Overcast at 1,300' AGL
Temperature Dewpoint
2°C / 36°F 0°C / 32°F
Humidity Altimeter Pressure
87% 30.66" Hg 1038.2 hPa